Zim Qingdao — A8IZ2 — position and weather

sailwx.info

Track history (hours):
 
Tides and Currents Weather Stations Pressure Air Temp Water Temp Dewpoint Dewpoint Depression Visibility Wind Speed Wind Dir Waves Ship Positions

Zim Qingdao

Last reported at 2015-Apr-19 05:23 UTC. Time now 2015-Apr-19 15:38 UTC.
Position N 38°32' W 074°23'.

Length 260.61 m; beam 32.25 m; draft 12.6 m.

Type: Cargo ship. MMSI: 636012904.

Date/timePositionNaut miles runAvg speedWind from/ knotsBaromVisibWave heightAir tempDewpointWater temp
2015-Apr-19 05:23N 38°32' W 074°23'1416.9
2015-Apr-19 04:33N 38°44' W 074°14'4216.8
2015-Apr-19 02:04N 39°24' W 073°59'916.9
2015-Apr-19 01:33N 39°33' W 073°56'1716.7
2015-Apr-19 00:33N 39°49' W 073°52'1616.1
2015-Apr-18 23:33N 40°05' W 073°50'21 9.7
2015-Apr-18 21:25N 40°26' W 073°49'8 9.5
2015-Apr-18 20:33N 40°30' W 073°58'1010.4
2015-Apr-18 19:33N 40°39' W 074°06'3 3.1
2015-Apr-18 18:33N 40°41' W 074°09'0 0.0
2015-Apr-18 17:33N 40°41' W 074°09'0 0.0
2015-Apr-18 16:33N 40°41' W 074°09'0 0.0
2015-Apr-18 15:33N 40°41' W 074°09'0 0.0
2015-Apr-18 14:33N 40°41' W 074°09'0 0.0
2015-Apr-18 13:33N 40°41' W 074°09'0 0.0
2015-Apr-18 12:33N 40°41' W 074°09'0 0.0
2015-Apr-18 11:33N 40°41' W 074°09'0 0.0
2015-Apr-18 10:33N 40°41' W 074°09'0 0.0
2015-Apr-18 09:33N 40°41' W 074°09'0 0.0
2015-Apr-18 08:33N 40°41' W 074°09'0 0.0
2015-Apr-18 07:33N 40°41' W 074°09'0 0.0
2015-Apr-18 06:33N 40°41' W 074°09'0 0.0
2015-Apr-18 05:33N 40°41' W 074°09'0 0.0
2015-Apr-18 04:33N 40°41' W 074°09'0 0.0
2015-Apr-18 03:33N 40°41' W 074°09'0 0.0
2015-Apr-18 02:33N 40°41' W 074°09'0 0.0
2015-Apr-18 01:33N 40°41' W 074°09'0 0.0
2015-Apr-18 00:33N 40°41' W 074°09'0 0.0
2015-Apr-17 23:33N 40°41' W 074°09'0 0.0
2015-Apr-17 22:30N 40°41' W 074°09'0 0.0
2015-Apr-17 21:33N 40°41' W 074°09'0 0.0
2015-Apr-17 20:33N 40°41' W 074°09'0 0.0
2015-Apr-17 19:33N 40°41' W 074°09'0 0.0
2015-Apr-17 18:33N 40°41' W 074°09'0 0.0
2015-Apr-17 17:33N 40°41' W 074°09'0 0.0
2015-Apr-17 16:33N 40°41' W 074°09'0 0.0
2015-Apr-17 15:30N 40°41' W 074°09'0 0.0
2015-Apr-17 14:33N 40°41' W 074°09'0 0.0
2015-Apr-17 13:33N 40°41' W 074°09'0 0.0
2015-Apr-17 12:33N 40°41' W 074°09'0 0.0
2015-Apr-17 11:33N 40°41' W 074°09'1 0.7
2015-Apr-17 10:33N 40°40' W 074°08'4 4.1
2015-Apr-17 09:34N 40°39' W 074°03'1110.6
2015-Apr-17 08:33N 40°30' W 073°56'9 8.6
2015-Apr-17 07:33N 40°27' W 073°45'8 7.3
2015-Apr-17 06:31N 40°28' W 073°35'1511.2
2015-Apr-17 05:12N 40°29' W 073°16'1015.9
2015-Apr-17 04:33N 40°29' W 073°02'1715.9
2015-Apr-17 03:31N 40°30' W 072°40'1516.0
2015-Apr-17 02:33N 40°30' W 072°20'1616.0
2015-Apr-17 01:33N 40°31' W 071°59'1616.0
2015-Apr-17 00:33N 40°31' W 071°38'1615.9
2015-Apr-16 23:34N 40°32' W 071°17'1615.6
2015-Apr-16 22:33N 40°32' W 070°57'1515.4
2015-Apr-16 21:33N 40°32' W 070°37'1515.0
2015-Apr-16 20:33N 40°33' W 070°17'1515.3
2015-Apr-16 19:34N 40°33' W 069°57'1615.8
2015-Apr-16 18:33N 40°33' W 069°36'2316.7
2015-Apr-16 17:09N 40°34' W 069°05'1016.4
2015-Apr-16 16:33N 40°36' W 068°52'  
2015-Apr-14 00:00N 43°00' W 053°18'9215.4 300 / 101032.010.8 3.0-3.0
2015-Apr-13 18:00N 43°06' W 051°12'27615.3 300 / 121027.010.8 1.5 3.0-2.0
2015-Apr-13 00:00N 43°06' W 044°54'33113.8 310 / 271014.0 5.4 11.0 3.0
2015-Apr-12 00:00N 42°42' W 037°24'18715.6 180 / 101026.010.8 10.0 1.0
2015-Apr-11 12:00N 42°18' W 033°12'54915.2 330 / 271017.010.8 5.0 9.0 7.0
2015-Apr-10 00:00N 40°06' W 021°24'18615.5 030 / 121024.0 5.4 14.011.0
2015-Apr-09 12:00N 39°06' W 017°36'   330 / 151012.310.8 1.515.013.0
Track history (hours):
 
Tides and Currents Weather Stations Pressure Air Temp Water Temp Dewpoint Dewpoint Depression Visibility Wind Speed Wind Dir Waves Ship Positions

Zim Qingdao

Last reported at 2015-Apr-19 05:23 UTC. Time now 2015-Apr-19 15:38 UTC.
Position N 38°32' W 074°23'.

Length 260.61 m; beam 32.25 m; draft 12.6 m.

Type: Cargo ship. MMSI: 636012904.

Date/timePositionNaut miles runAvg speedWind from/ knotsBaromVisibWave heightAir tempDewpointWater temp
2015-Apr-19 05:23N 38°32' W 074°23'1416.9
2015-Apr-19 04:33N 38°44' W 074°14'4216.8
2015-Apr-19 02:04N 39°24' W 073°59'916.9
2015-Apr-19 01:33N 39°33' W 073°56'1716.7
2015-Apr-19 00:33N 39°49' W 073°52'1616.1
2015-Apr-18 23:33N 40°05' W 073°50'21 9.7
2015-Apr-18 21:25N 40°26' W 073°49'8 9.5
2015-Apr-18 20:33N 40°30' W 073°58'1010.4
2015-Apr-18 19:33N 40°39' W 074°06'3 3.1
2015-Apr-18 18:33N 40°41' W 074°09'0 0.0
2015-Apr-18 17:33N 40°41' W 074°09'0 0.0
2015-Apr-18 16:33N 40°41' W 074°09'0 0.0
2015-Apr-18 15:33N 40°41' W 074°09'0 0.0
2015-Apr-18 14:33N 40°41' W 074°09'0 0.0
2015-Apr-18 13:33N 40°41' W 074°09'0 0.0
2015-Apr-18 12:33N 40°41' W 074°09'0 0.0
2015-Apr-18 11:33N 40°41' W 074°09'0 0.0
2015-Apr-18 10:33N 40°41' W 074°09'0 0.0
2015-Apr-18 09:33N 40°41' W 074°09'0 0.0
2015-Apr-18 08:33N 40°41' W 074°09'0 0.0
2015-Apr-18 07:33N 40°41' W 074°09'0 0.0
2015-Apr-18 06:33N 40°41' W 074°09'0 0.0
2015-Apr-18 05:33N 40°41' W 074°09'0 0.0
2015-Apr-18 04:33N 40°41' W 074°09'0 0.0
2015-Apr-18 03:33N 40°41' W 074°09'0 0.0
2015-Apr-18 02:33N 40°41' W 074°09'0 0.0
2015-Apr-18 01:33N 40°41' W 074°09'0 0.0
2015-Apr-18 00:33N 40°41' W 074°09'0 0.0
2015-Apr-17 23:33N 40°41' W 074°09'0 0.0
2015-Apr-17 22:30N 40°41' W 074°09'0 0.0
2015-Apr-17 21:33N 40°41' W 074°09'0 0.0
2015-Apr-17 20:33N 40°41' W 074°09'0 0.0
2015-Apr-17 19:33N 40°41' W 074°09'0 0.0
2015-Apr-17 18:33N 40°41' W 074°09'0 0.0
2015-Apr-17 17:33N 40°41' W 074°09'0 0.0
2015-Apr-17 16:33N 40°41' W 074°09'0 0.0
2015-Apr-17 15:30N 40°41' W 074°09'0 0.0
2015-Apr-17 14:33N 40°41' W 074°09'0 0.0
2015-Apr-17 13:33N 40°41' W 074°09'0 0.0
2015-Apr-17 12:33N 40°41' W 074°09'0 0.0
2015-Apr-17 11:33N 40°41' W 074°09'1 0.7
2015-Apr-17 10:33N 40°40' W 074°08'4 4.1
2015-Apr-17 09:34N 40°39' W 074°03'1110.6
2015-Apr-17 08:33N 40°30' W 073°56'9 8.6
2015-Apr-17 07:33N 40°27' W 073°45'8 7.3
2015-Apr-17 06:31N 40°28' W 073°35'1511.2
2015-Apr-17 05:12N 40°29' W 073°16'1015.9
2015-Apr-17 04:33N 40°29' W 073°02'1715.9
2015-Apr-17 03:31N 40°30' W 072°40'1516.0
2015-Apr-17 02:33N 40°30' W 072°20'1616.0
2015-Apr-17 01:33N 40°31' W 071°59'1616.0
2015-Apr-17 00:33N 40°31' W 071°38'1615.9
2015-Apr-16 23:34N 40°32' W 071°17'1615.6
2015-Apr-16 22:33N 40°32' W 070°57'1515.4
2015-Apr-16 21:33N 40°32' W 070°37'1515.0
2015-Apr-16 20:33N 40°33' W 070°17'1515.3
2015-Apr-16 19:34N 40°33' W 069°57'1615.8
2015-Apr-16 18:33N 40°33' W 069°36'2316.7
2015-Apr-16 17:09N 40°34' W 069°05'1016.4
2015-Apr-16 16:33N 40°36' W 068°52'  
2015-Apr-14 00:00N 43°00' W 053°18'9215.4 300 / 101032.010.8 3.0-3.0
2015-Apr-13 18:00N 43°06' W 051°12'27615.3 300 / 121027.010.8 1.5 3.0-2.0
2015-Apr-13 00:00N 43°06' W 044°54'33113.8 310 / 271014.0 5.4 11.0 3.0
2015-Apr-12 00:00N 42°42' W 037°24'18715.6 180 / 101026.010.8 10.0 1.0
2015-Apr-11 12:00N 42°18' W 033°12'54915.2 330 / 271017.010.8 5.0 9.0 7.0
2015-Apr-10 00:00N 40°06' W 021°24'18615.5 030 / 121024.0 5.4 14.011.0
2015-Apr-09 12:00N 39°06' W 017°36'   330 / 151012.310.8 1.515.013.0

Dump ship's entire track history